sensor_id;sensor_type;location;lat;lon;timestamp;pressure;altitude;pressure_sealevel;temperature;humidity
24306;BME280;12423;48.768;8.850;2023-03-18T00:01:45;96502.63;;;11.86;65.62
24306;BME280;12423;48.768;8.850;2023-03-18T00:03:47;96506.53;;;11.74;66.59
24306;BME280;12423;48.768;8.850;2023-03-18T00:05:48;96506.25;;;11.95;64.89
24306;BME280;12423;48.768;8.850;2023-03-18T00:07:50;96503.63;;;11.85;65.77
24306;BME280;12423;48.768;8.850;2023-03-18T00:09:51;96503.41;;;11.78;66.19
24306;BME280;12423;48.768;8.850;2023-03-18T00:11:53;96507.44;;;11.83;65.49
24306;BME280;12423;48.768;8.850;2023-03-18T00:13:56;96512.78;;;11.83;65.42
24306;BME280;12423;48.768;8.850;2023-03-18T00:15:59;96519.84;;;11.84;65.16
24306;BME280;12423;48.768;8.850;2023-03-18T00:18:00;96513.97;;;11.80;65.32
24306;BME280;12423;48.768;8.850;2023-03-18T00:20:01;96514.34;;;11.85;64.34
24306;BME280;12423;48.768;8.850;2023-03-18T00:22:05;96526.56;;;11.88;64.91
24306;BME280;12423;48.768;8.850;2023-03-18T00:24:08;96524.75;;;11.88;64.37
24306;BME280;12423;48.768;8.850;2023-03-18T00:26:09;96524.59;;;11.90;64.57
24306;BME280;12423;48.768;8.850;2023-03-18T00:28:14;96525.31;;;11.92;64.50
24306;BME280;12423;48.768;8.850;2023-03-18T00:30:16;96531.47;;;11.92;64.73
24306;BME280;12423;48.768;8.850;2023-03-18T00:32:18;96536.56;;;11.86;64.45
24306;BME280;12423;48.768;8.850;2023-03-18T00:34:19;96530.09;;;11.88;64.05
24306;BME280;12423;48.768;8.850;2023-03-18T00:36:20;96539.50;;;11.92;64.29
24306;BME280;12423;48.768;8.850;2023-03-18T00:38:25;96537.22;;;11.97;64.24
24306;BME280;12423;48.768;8.850;2023-03-18T00:40:26;96541.22;;;11.93;64.30
24306;BME280;12423;48.768;8.850;2023-03-18T00:42:42;96549.25;;;11.93;64.97
24306;BME280;12423;48.768;8.850;2023-03-18T00:44:47;96537.84;;;11.91;64.95
24306;BME280;12423;48.768;8.850;2023-03-18T00:46:48;96541.09;;;11.85;65.55
24306;BME280;12423;48.768;8.850;2023-03-18T00:48:51;96539.31;;;11.76;65.99
24306;BME280;12423;48.768;8.850;2023-03-18T00:50:52;96540.09;;;11.68;66.85
24306;BME280;12423;48.768;8.850;2023-03-18T00:52:54;96525.47;;;11.62;66.83
24306;BME280;12423;48.768;8.850;2023-03-18T00:54:56;96541.44;;;11.54;67.47
24306;BME280;12423;48.768;8.850;2023-03-18T00:56:57;96539.78;;;11.53;67.77
24306;BME280;12423;48.768;8.850;2023-03-18T00:58:58;96531.03;;;11.51;67.18
24306;BME280;12423;48.768;8.850;2023-03-18T01:01:00;96543.66;;;11.59;67.27
24306;BME280;12423;48.768;8.850;2023-03-18T01:03:01;96538.22;;;11.51;67.52
24306;BME280;12423;48.768;8.850;2023-03-18T01:05:06;96551.91;;;11.48;68.11
24306;BME280;12423;48.768;8.850;2023-03-18T01:07:08;96545.19;;;11.43;67.25
24306;BME280;12423;48.768;8.850;2023-03-18T01:09:10;96544.00;;;11.46;67.19
24306;BME280;12423;48.768;8.850;2023-03-18T01:11:13;96544.31;;;11.43;67.48
24306;BME280;12423;48.768;8.850;2023-03-18T01:13:14;96540.22;;;11.49;66.49
24306;BME280;12423;48.768;8.850;2023-03-18T01:15:17;96536.28;;;11.43;67.05
24306;BME280;12423;48.768;8.850;2023-03-18T01:17:19;96530.78;;;11.44;66.93
24306;BME280;12423;48.768;8.850;2023-03-18T01:19:20;96537.16;;;11.43;66.73
24306;BME280;12423;48.768;8.850;2023-03-18T01:21:22;96532.63;;;11.44;66.69
24306;BME280;12423;48.768;8.850;2023-03-18T01:23:28;96541.78;;;11.41;66.51
24306;BME280;12423;48.768;8.850;2023-03-18T01:25:30;96535.31;;;11.44;66.46
24306;BME280;12423;48.768;8.850;2023-03-18T01:27:31;96543.63;;;11.41;66.51
24306;BME280;12423;48.768;8.850;2023-03-18T01:29:34;96538.72;;;11.36;66.88
24306;BME280;12423;48.768;8.850;2023-03-18T01:31:35;96534.22;;;11.37;66.53
24306;BME280;12423;48.768;8.850;2023-03-18T01:33:43;96538.97;;;11.43;65.99
24306;BME280;12423;48.768;8.850;2023-03-18T01:35:45;96541.41;;;11.36;66.32
24306;BME280;12423;48.768;8.850;2023-03-18T01:37:50;96542.34;;;11.45;65.82
24306;BME280;12423;48.768;8.850;2023-03-18T01:39:53;96536.69;;;11.48;65.49
24306;BME280;12423;48.768;8.850;2023-03-18T01:41:57;96537.97;;;11.44;65.79
24306;BME280;12423;48.768;8.850;2023-03-18T01:44:03;96537.44;;;11.40;65.89
24306;BME280;12423;48.768;8.850;2023-03-18T01:48:36;96528.31;;;11.33;66.26
24306;BME280;12423;48.768;8.850;2023-03-18T01:50:42;96532.25;;;11.39;65.86
24306;BME280;12423;48.768;8.850;2023-03-18T01:52:45;96537.41;;;11.22;66.63
24306;BME280;12423;48.768;8.850;2023-03-18T01:54:53;96534.34;;;11.17;66.99
24306;BME280;12423;48.768;8.850;2023-03-18T01:56:55;96533.78;;;11.14;67.51
24306;BME280;12423;48.768;8.850;2023-03-18T01:58:57;96536.91;;;11.09;68.02
24306;BME280;12423;48.768;8.850;2023-03-18T02:01:02;96536.63;;;11.12;67.65
24306;BME280;12423;48.768;8.850;2023-03-18T02:03:04;96535.50;;;11.05;68.24
24306;BME280;12423;48.768;8.850;2023-03-18T02:05:07;96531.31;;;11.02;68.36
24306;BME280;12423;48.768;8.850;2023-03-18T02:07:16;96533.44;;;10.99;68.15
24306;BME280;12423;48.768;8.850;2023-03-18T02:09:18;96541.13;;;11.02;68.36
24306;BME280;12423;48.768;8.850;2023-03-18T02:11:21;96528.78;;;11.01;67.85
24306;BME280;12423;48.768;8.850;2023-03-18T02:13:24;96528.53;;;10.94;68.69
24306;BME280;12423;48.768;8.850;2023-03-18T02:15:27;96525.31;;;10.91;68.91
24306;BME280;12423;48.768;8.850;2023-03-18T02:17:32;96532.28;;;11.01;68.44
24306;BME280;12423;48.768;8.850;2023-03-18T02:19:47;96531.34;;;10.93;69.04
24306;BME280;12423;48.768;8.850;2023-03-18T02:22:14;96526.19;;;10.81;69.68
24306;BME280;12423;48.768;8.850;2023-03-18T02:24:54;96524.47;;;10.80;70.03
24306;BME280;12423;48.768;8.850;2023-03-18T02:27:02;96527.91;;;10.73;70.40
24306;BME280;12423;48.768;8.850;2023-03-18T02:29:13;96521.59;;;10.64;70.27
24306;BME280;12423;48.768;8.850;2023-03-18T02:31:22;96523.00;;;10.68;71.13
24306;BME280;12423;48.768;8.850;2023-03-18T02:33:27;96523.97;;;10.67;70.98
24306;BME280;12423;48.768;8.850;2023-03-18T02:35:29;96528.94;;;10.52;71.85
24306;BME280;12423;48.768;8.850;2023-03-18T02:37:34;96523.59;;;10.52;71.47
24306;BME280;12423;48.768;8.850;2023-03-18T02:39:36;96529.06;;;10.50;72.11
24306;BME280;12423;48.768;8.850;2023-03-18T02:41:38;96526.13;;;10.44;72.36
24306;BME280;12423;48.768;8.850;2023-03-18T02:43:39;96531.19;;;10.47;71.97
24306;BME280;12423;48.768;8.850;2023-03-18T02:46:00;96534.00;;;10.45;71.93
24306;BME280;12423;48.768;8.850;2023-03-18T02:48:07;96528.41;;;10.39;72.31
24306;BME280;12423;48.768;8.850;2023-03-18T02:50:11;96527.72;;;10.37;72.61
24306;BME280;12423;48.768;8.850;2023-03-18T02:52:12;96530.25;;;10.38;72.57
24306;BME280;12423;48.768;8.850;2023-03-18T02:54:18;96528.69;;;10.36;72.51
24306;BME280;12423;48.768;8.850;2023-03-18T02:56:20;96534.88;;;10.36;72.29
24306;BME280;12423;48.768;8.850;2023-03-18T02:58:21;96526.72;;;10.28;72.73
24306;BME280;12423;48.768;8.850;2023-03-18T03:00:27;96534.28;;;10.42;71.60
24306;BME280;12423;48.768;8.850;2023-03-18T03:02:28;96532.75;;;10.49;70.98
24306;BME280;12423;48.768;8.850;2023-03-18T03:04:29;96540.03;;;10.47;71.15
24306;BME280;12423;48.768;8.850;2023-03-18T03:06:30;96546.09;;;10.49;70.67
24306;BME280;12423;48.768;8.850;2023-03-18T03:08:32;96539.03;;;10.68;69.46
24306;BME280;12423;48.768;8.850;2023-03-18T03:10:33;96543.16;;;10.53;70.46
24306;BME280;12423;48.768;8.850;2023-03-18T03:12:34;96550.56;;;10.59;70.18
24306;BME280;12423;48.768;8.850;2023-03-18T03:14:37;96541.84;;;10.57;70.15
24306;BME280;12423;48.768;8.850;2023-03-18T03:16:38;96545.97;;;10.41;70.79
24306;BME280;12423;48.768;8.850;2023-03-18T03:18:39;96552.84;;;10.34;71.20
24306;BME280;12423;48.768;8.850;2023-03-18T03:20:44;96564.78;;;10.30;71.79
24306;BME280;12423;48.768;8.850;2023-03-18T03:22:45;96559.03;;;10.25;72.03
24306;BME280;12423;48.768;8.850;2023-03-18T03:24:46;96550.56;;;10.29;72.00
24306;BME280;12423;48.768;8.850;2023-03-18T03:26:48;96551.72;;;10.27;72.23
24306;BME280;12423;48.768;8.850;2023-03-18T03:28:49;96548.91;;;10.19;72.09
24306;BME280;12423;48.768;8.850;2023-03-18T03:30:50;96544.81;;;10.14;72.95
24306;BME280;12423;48.768;8.850;2023-03-18T03:32:51;96551.16;;;10.13;73.39
24306;BME280;12423;48.768;8.850;2023-03-18T03:34:52;96560.56;;;10.18;72.42
24306;BME280;12423;48.768;8.850;2023-03-18T03:36:53;96556.09;;;10.18;72.74
24306;BME280;12423;48.768;8.850;2023-03-18T03:38:54;96553.41;;;10.18;72.65
24306;BME280;12423;48.768;8.850;2023-03-18T03:40:56;96550.28;;;10.23;71.67
24306;BME280;12423;48.768;8.850;2023-03-18T03:42:57;96546.09;;;10.20;72.26
24306;BME280;12423;48.768;8.850;2023-03-18T03:44:58;96545.13;;;10.11;72.97
24306;BME280;12423;48.768;8.850;2023-03-18T03:46:59;96544.97;;;10.23;72.46
24306;BME280;12423;48.768;8.850;2023-03-18T03:49:01;96546.09;;;10.30;71.46
24306;BME280;12423;48.768;8.850;2023-03-18T03:51:02;96550.44;;;10.31;71.22
24306;BME280;12423;48.768;8.850;2023-03-18T03:53:03;96546.38;;;10.27;71.84
24306;BME280;12423;48.768;8.850;2023-03-18T03:55:07;96553.56;;;10.26;71.46
24306;BME280;12423;48.768;8.850;2023-03-18T03:57:10;96547.22;;;10.27;71.70
24306;BME280;12423;48.768;8.850;2023-03-18T03:59:11;96555.22;;;10.27;71.88
24306;BME280;12423;48.768;8.850;2023-03-18T04:01:47;96555.38;;;10.36;71.11
24306;BME280;12423;48.768;8.850;2023-03-18T04:03:48;96556.25;;;10.36;71.22
24306;BME280;12423;48.768;8.850;2023-03-18T04:05:52;96556.53;;;10.33;71.63
24306;BME280;12423;48.768;8.850;2023-03-18T04:07:56;96561.28;;;10.20;72.10
24306;BME280;12423;48.768;8.850;2023-03-18T04:10:10;96563.81;;;10.11;72.78
24306;BME280;12423;48.768;8.850;2023-03-18T04:12:12;96566.63;;;10.10;72.73
24306;BME280;12423;48.768;8.850;2023-03-18T04:14:13;96568.44;;;10.09;72.93
24306;BME280;12423;48.768;8.850;2023-03-18T04:16:14;96568.84;;;10.14;72.65
24306;BME280;12423;48.768;8.850;2023-03-18T04:18:16;96562.94;;;10.21;72.19
24306;BME280;12423;48.768;8.850;2023-03-18T04:20:18;96564.78;;;10.20;72.19
24306;BME280;12423;48.768;8.850;2023-03-18T04:22:20;96561.16;;;10.11;72.76
24306;BME280;12423;48.768;8.850;2023-03-18T04:24:21;96557.88;;;10.18;72.38
24306;BME280;12423;48.768;8.850;2023-03-18T04:26:22;96553.41;;;10.18;72.21
24306;BME280;12423;48.768;8.850;2023-03-18T04:28:24;96566.16;;;10.24;71.63
24306;BME280;12423;48.768;8.850;2023-03-18T04:30:25;96560.41;;;10.29;71.76
24306;BME280;12423;48.768;8.850;2023-03-18T04:32:34;96562.69;;;10.33;70.95
24306;BME280;12423;48.768;8.850;2023-03-18T04:34:36;96553.69;;;10.25;71.25
24306;BME280;12423;48.768;8.850;2023-03-18T04:36:37;96553.25;;;10.29;71.17
24306;BME280;12423;48.768;8.850;2023-03-18T04:38:38;96555.63;;;10.23;71.73
24306;BME280;12423;48.768;8.850;2023-03-18T04:40:40;96546.53;;;10.15;72.72
24306;BME280;12423;48.768;8.850;2023-03-18T04:42:42;96558.63;;;10.10;72.74
24306;BME280;12423;48.768;8.850;2023-03-18T04:44:45;96559.88;;;10.06;72.35
24306;BME280;12423;48.768;8.850;2023-03-18T04:46:47;96559.16;;;9.74;76.13
24306;BME280;12423;48.768;8.850;2023-03-18T04:48:48;96572.19;;;9.68;77.92
24306;BME280;12423;48.768;8.850;2023-03-18T04:50:49;96570.22;;;9.50;79.13
24306;BME280;12423;48.768;8.850;2023-03-18T04:52:56;96570.47;;;9.37;80.26
24306;BME280;12423;48.768;8.850;2023-03-18T04:55:01;96576.16;;;9.23;82.33
24306;BME280;12423;48.768;8.850;2023-03-18T04:57:03;96569.56;;;9.17;82.77
24306;BME280;12423;48.768;8.850;2023-03-18T04:59:09;96571.44;;;9.06;82.84
24306;BME280;12423;48.768;8.850;2023-03-18T05:01:10;96568.34;;;9.00;85.52
24306;BME280;12423;48.768;8.850;2023-03-18T05:03:12;96570.38;;;8.87;86.20
24306;BME280;12423;48.768;8.850;2023-03-18T05:05:14;96567.16;;;8.83;87.40
24306;BME280;12423;48.768;8.850;2023-03-18T05:07:20;96566.00;;;8.76;88.81
24306;BME280;12423;48.768;8.850;2023-03-18T05:09:31;96572.13;;;8.67;88.51
24306;BME280;12423;48.768;8.850;2023-03-18T05:11:33;96576.34;;;8.70;88.92
24306;BME280;12423;48.768;8.850;2023-03-18T05:13:43;96574.91;;;8.65;89.55
24306;BME280;12423;48.768;8.850;2023-03-18T05:15:45;96580.31;;;8.54;91.55
24306;BME280;12423;48.768;8.850;2023-03-18T05:17:46;96576.97;;;8.41;91.67
24306;BME280;12423;48.768;8.850;2023-03-18T05:19:47;96581.72;;;8.37;93.49
24306;BME280;12423;48.768;8.850;2023-03-18T05:21:53;96592.59;;;8.34;93.15
24306;BME280;12423;48.768;8.850;2023-03-18T05:23:54;96593.53;;;8.23;94.31
24306;BME280;12423;48.768;8.850;2023-03-18T05:25:56;96589.53;;;8.18;96.34
24306;BME280;12423;48.768;8.850;2023-03-18T05:28:00;96586.81;;;8.08;95.84
24306;BME280;12423;48.768;8.850;2023-03-18T05:30:13;96586.38;;;7.91;96.49
24306;BME280;12423;48.768;8.850;2023-03-18T05:32:19;96587.25;;;7.92;98.68
24306;BME280;12423;48.768;8.850;2023-03-18T05:34:26;96591.13;;;7.88;100.00
24306;BME280;12423;48.768;8.850;2023-03-18T05:36:27;96589.56;;;7.85;99.84
24306;BME280;12423;48.768;8.850;2023-03-18T05:38:35;96598.88;;;7.80;100.00
24306;BME280;12423;48.768;8.850;2023-03-18T05:40:36;96596.34;;;7.78;100.00
24306;BME280;12423;48.768;8.850;2023-03-18T05:42:51;96603.03;;;7.72;100.00
24306;BME280;12423;48.768;8.850;2023-03-18T05:44:53;96599.38;;;7.73;100.00
24306;BME280;12423;48.768;8.850;2023-03-18T05:46:57;96593.50;;;7.59;100.00
24306;BME280;12423;48.768;8.850;2023-03-18T05:49:27;96603.41;;;7.56;100.00
24306;BME280;12423;48.768;8.850;2023-03-18T05:51:55;96596.66;;;7.52;100.00
24306;BME280;12423;48.768;8.850;2023-03-18T05:54:08;96603.41;;;7.56;100.00
24306;BME280;12423;48.768;8.850;2023-03-18T05:56:14;96601.47;;;7.59;100.00
24306;BME280;12423;48.768;8.850;2023-03-18T05:58:17;96593.63;;;7.57;100.00
24306;BME280;12423;48.768;8.850;2023-03-18T06:00:20;96599.44;;;7.51;100.00
24306;BME280;12423;48.768;8.850;2023-03-18T06:02:23;96594.00;;;7.52;100.00
24306;BME280;12423;48.768;8.850;2023-03-18T06:04:26;96598.97;;;7.46;100.00
24306;BME280;12423;48.768;8.850;2023-03-18T06:06:27;96589.06;;;7.48;100.00
24306;BME280;12423;48.768;8.850;2023-03-18T06:08:29;96596.56;;;7.43;100.00
24306;BME280;12423;48.768;8.850;2023-03-18T06:10:30;96596.91;;;7.49;100.00
24306;BME280;12423;48.768;8.850;2023-03-18T06:12:32;96603.78;;;7.41;100.00
24306;BME280;12423;48.768;8.850;2023-03-18T06:14:33;96608.63;;;7.47;100.00
24306;BME280;12423;48.768;8.850;2023-03-18T06:16:36;96607.56;;;7.38;100.00
24306;BME280;12423;48.768;8.850;2023-03-18T06:18:37;96607.31;;;7.30;100.00
24306;BME280;12423;48.768;8.850;2023-03-18T06:20:38;96608.75;;;7.34;100.00
24306;BME280;12423;48.768;8.850;2023-03-18T06:22:41;96611.88;;;7.39;100.00
24306;BME280;12423;48.768;8.850;2023-03-18T06:24:43;96609.00;;;7.42;100.00
24306;BME280;12423;48.768;8.850;2023-03-18T06:26:44;96609.09;;;7.41;100.00
24306;BME280;12423;48.768;8.850;2023-03-18T06:28:46;96612.63;;;7.41;100.00
24306;BME280;12423;48.768;8.850;2023-03-18T06:30:49;96615.78;;;7.35;100.00
24306;BME280;12423;48.768;8.850;2023-03-18T06:32:50;96610.69;;;7.43;100.00
24306;BME280;12423;48.768;8.850;2023-03-18T06:34:53;96615.53;;;7.38;100.00
24306;BME280;12423;48.768;8.850;2023-03-18T06:36:54;96615.28;;;7.41;100.00
24306;BME280;12423;48.768;8.850;2023-03-18T06:38:57;96614.94;;;7.34;100.00
24306;BME280;12423;48.768;8.850;2023-03-18T06:40:59;96616.97;;;7.42;100.00
24306;BME280;12423;48.768;8.850;2023-03-18T06:43:02;96613.09;;;7.46;100.00
24306;BME280;12423;48.768;8.850;2023-03-18T06:45:09;96610.56;;;7.45;100.00
24306;BME280;12423;48.768;8.850;2023-03-18T06:47:23;96622.38;;;7.52;100.00
24306;BME280;12423;48.768;8.850;2023-03-18T06:49:29;96615.50;;;7.61;100.00
24306;BME280;12423;48.768;8.850;2023-03-18T06:51:40;96620.06;;;7.70;100.00
24306;BME280;12423;48.768;8.850;2023-03-18T06:53:42;96617.88;;;7.75;100.00
24306;BME280;12423;48.768;8.850;2023-03-18T06:55:43;96616.44;;;7.71;100.00
24306;BME280;12423;48.768;8.850;2023-03-18T06:57:44;96617.88;;;7.75;100.00
24306;BME280;12423;48.768;8.850;2023-03-18T06:59:49;96622.34;;;7.74;100.00
24306;BME280;12423;48.768;8.850;2023-03-18T07:01:50;96617.38;;;7.81;100.00
24306;BME280;12423;48.768;8.850;2023-03-18T07:03:53;96617.00;;;7.86;100.00
24306;BME280;12423;48.768;8.850;2023-03-18T07:05:55;96614.09;;;7.89;100.00
24306;BME280;12423;48.768;8.850;2023-03-18T07:07:57;96615.16;;;7.98;100.00
24306;BME280;12423;48.768;8.850;2023-03-18T07:09:58;96619.97;;;8.04;100.00
24306;BME280;12423;48.768;8.850;2023-03-18T07:12:00;96622.63;;;8.04;100.00
24306;BME280;12423;48.768;8.850;2023-03-18T07:14:02;96617.31;;;8.04;100.00
24306;BME280;12423;48.768;8.850;2023-03-18T07:16:09;96620.44;;;8.09;100.00
24306;BME280;12423;48.768;8.850;2023-03-18T07:18:10;96622.47;;;8.17;100.00
24306;BME280;12423;48.768;8.850;2023-03-18T07:20:12;96630.50;;;8.26;100.00
24306;BME280;12423;48.768;8.850;2023-03-18T07:22:14;96622.72;;;8.35;100.00
24306;BME280;12423;48.768;8.850;2023-03-18T07:24:17;96624.41;;;8.47;100.00
24306;BME280;12423;48.768;8.850;2023-03-18T07:26:21;96629.41;;;8.61;100.00
24306;BME280;12423;48.768;8.850;2023-03-18T07:28:22;96629.84;;;8.66;100.00
24306;BME280;12423;48.768;8.850;2023-03-18T07:30:23;96624.16;;;8.71;100.00
24306;BME280;12423;48.768;8.850;2023-03-18T07:32:24;96622.97;;;8.85;100.00
24306;BME280;12423;48.768;8.850;2023-03-18T07:34:25;96628.34;;;8.95;100.00
24306;BME280;12423;48.768;8.850;2023-03-18T07:36:27;96628.97;;;9.08;100.00
24306;BME280;12423;48.768;8.850;2023-03-18T07:38:28;96625.09;;;9.22;100.00
24306;BME280;12423;48.768;8.850;2023-03-18T07:40:29;96634.69;;;9.34;100.00
24306;BME280;12423;48.768;8.850;2023-03-18T07:42:30;96632.19;;;9.43;100.00
24306;BME280;12423;48.768;8.850;2023-03-18T07:44:31;96631.38;;;9.52;100.00
24306;BME280;12423;48.768;8.850;2023-03-18T07:46:32;96626.19;;;9.60;100.00
24306;BME280;12423;48.768;8.850;2023-03-18T07:48:33;96632.16;;;9.73;99.51
24306;BME280;12423;48.768;8.850;2023-03-18T07:50:34;96630.78;;;9.89;98.03
24306;BME280;12423;48.768;8.850;2023-03-18T07:52:36;96626.97;;;9.91;99.48
24306;BME280;12423;48.768;8.850;2023-03-18T07:54:37;96632.75;;;10.06;97.34
24306;BME280;12423;48.768;8.850;2023-03-18T07:56:38;96628.97;;;10.19;94.74
24306;BME280;12423;48.768;8.850;2023-03-18T07:58:39;96636.84;;;10.30;94.10
24306;BME280;12423;48.768;8.850;2023-03-18T08:00:40;96641.97;;;10.43;93.58
24306;BME280;12423;48.768;8.850;2023-03-18T08:02:42;96633.31;;;10.88;83.58
24306;BME280;12423;48.768;8.850;2023-03-18T08:04:43;96636.69;;;11.37;79.58
24306;BME280;12423;48.768;8.850;2023-03-18T08:06:46;96625.63;;;11.60;74.18
24306;BME280;12423;48.768;8.850;2023-03-18T08:08:47;96631.41;;;11.83;72.09
24306;BME280;12423;48.768;8.850;2023-03-18T08:10:49;96629.56;;;11.84;72.28
24306;BME280;12423;48.768;8.850;2023-03-18T08:12:50;96635.13;;;12.00;71.40
24306;BME280;12423;48.768;8.850;2023-03-18T08:14:52;96632.28;;;12.02;71.26
24306;BME280;12423;48.768;8.850;2023-03-18T08:16:53;96626.19;;;12.09;69.31
24306;BME280;12423;48.768;8.850;2023-03-18T08:18:54;96638.94;;;12.15;69.53
24306;BME280;12423;48.768;8.850;2023-03-18T08:20:55;96629.94;;;12.34;67.47
24306;BME280;12423;48.768;8.850;2023-03-18T08:22:56;96634.06;;;12.47;67.78
24306;BME280;12423;48.768;8.850;2023-03-18T08:24:57;96626.25;;;12.53;67.28
24306;BME280;12423;48.768;8.850;2023-03-18T08:26:58;96635.16;;;12.54;65.89
24306;BME280;12423;48.768;8.850;2023-03-18T08:28:59;96634.88;;;12.65;65.99
24306;BME280;12423;48.768;8.850;2023-03-18T08:31:00;96631.28;;;12.75;65.95
24306;BME280;12423;48.768;8.850;2023-03-18T08:33:01;96626.66;;;12.85;63.51
24306;BME280;12423;48.768;8.850;2023-03-18T08:35:02;96632.03;;;12.85;64.38
24306;BME280;12423;48.768;8.850;2023-03-18T08:37:04;96627.19;;;12.88;64.41
24306;BME280;12423;48.768;8.850;2023-03-18T08:39:05;96627.53;;;13.12;63.56
24306;BME280;12423;48.768;8.850;2023-03-18T08:41:07;96626.50;;;13.13;63.33
24306;BME280;12423;48.768;8.850;2023-03-18T08:43:09;96628.56;;;13.19;62.90
24306;BME280;12423;48.768;8.850;2023-03-18T08:45:10;96615.38;;;13.25;63.23
24306;BME280;12423;48.768;8.850;2023-03-18T08:47:12;96626.22;;;13.42;62.36
24306;BME280;12423;48.768;8.850;2023-03-18T08:49:13;96622.75;;;13.50;63.85
24306;BME280;12423;48.768;8.850;2023-03-18T08:51:14;96626.31;;;13.67;64.52
24306;BME280;12423;48.768;8.850;2023-03-18T08:53:16;96628.72;;;13.78;63.43
24306;BME280;12423;48.768;8.850;2023-03-18T08:55:17;96619.16;;;13.83;63.12
24306;BME280;12423;48.768;8.850;2023-03-18T08:57:21;96625.88;;;13.79;65.67
24306;BME280;12423;48.768;8.850;2023-03-18T08:59:22;96626.59;;;13.98;64.70
24306;BME280;12423;48.768;8.850;2023-03-18T09:01:23;96621.91;;;14.00;63.53
24306;BME280;12423;48.768;8.850;2023-03-18T09:03:24;96627.28;;;14.08;62.60
24306;BME280;12423;48.768;8.850;2023-03-18T09:05:25;96621.25;;;14.06;63.32
24306;BME280;12423;48.768;8.850;2023-03-18T09:07:26;96611.19;;;14.08;63.16
24306;BME280;12423;48.768;8.850;2023-03-18T09:09:28;96615.88;;;14.06;62.02
24306;BME280;12423;48.768;8.850;2023-03-18T09:11:29;96622.63;;;14.18;62.76
24306;BME280;12423;48.768;8.850;2023-03-18T09:13:30;96615.59;;;14.26;62.58
24306;BME280;12423;48.768;8.850;2023-03-18T09:15:31;96614.22;;;14.22;63.39
24306;BME280;12423;48.768;8.850;2023-03-18T09:17:32;96614.91;;;14.24;62.74
24306;BME280;12423;48.768;8.850;2023-03-18T09:19:33;96604.53;;;14.29;63.00
24306;BME280;12423;48.768;8.850;2023-03-18T09:21:34;96604.16;;;14.32;62.99
24306;BME280;12423;48.768;8.850;2023-03-18T09:23:35;96608.53;;;14.33;62.56
24306;BME280;12423;48.768;8.850;2023-03-18T09:25:37;96605.19;;;14.39;62.74
24306;BME280;12423;48.768;8.850;2023-03-18T09:27:38;96606.19;;;14.46;63.64
24306;BME280;12423;48.768;8.850;2023-03-18T09:29:39;96598.47;;;14.51;62.63
24306;BME280;12423;48.768;8.850;2023-03-18T09:31:41;96604.91;;;14.67;62.88
24306;BME280;12423;48.768;8.850;2023-03-18T09:33:42;96602.72;;;14.79;62.46
24306;BME280;12423;48.768;8.850;2023-03-18T09:35:43;96598.16;;;14.87;62.15
24306;BME280;12423;48.768;8.850;2023-03-18T09:37:44;96591.63;;;14.90;60.58
24306;BME280;12423;48.768;8.850;2023-03-18T09:39:45;96594.78;;;14.93;61.72
24306;BME280;12423;48.768;8.850;2023-03-18T09:42:20;96591.59;;;15.06;60.10
24306;BME280;12423;48.768;8.850;2023-03-18T09:44:30;96589.84;;;15.22;60.83
24306;BME280;12423;48.768;8.850;2023-03-18T09:49:15;96590.13;;;15.43;60.34
24306;BME280;12423;48.768;8.850;2023-03-18T09:51:35;96587.56;;;15.50;59.88
24306;BME280;12423;48.768;8.850;2023-03-18T09:53:47;96589.88;;;15.61;59.20
24306;BME280;12423;48.768;8.850;2023-03-18T09:55:59;96587.47;;;15.83;59.23
24306;BME280;12423;48.768;8.850;2023-03-18T09:58:14;96578.88;;;15.88;59.34
24306;BME280;12423;48.768;8.850;2023-03-18T10:00:21;96576.13;;;15.96;57.68
24306;BME280;12423;48.768;8.850;2023-03-18T10:02:31;96592.06;;;16.06;55.38
24306;BME280;12423;48.768;8.850;2023-03-18T10:04:51;96591.72;;;16.09;54.29
24306;BME280;12423;48.768;8.850;2023-03-18T10:06:56;96586.41;;;15.92;53.91
24306;BME280;12423;48.768;8.850;2023-03-18T10:09:26;96591.22;;;16.05;53.21
24306;BME280;12423;48.768;8.850;2023-03-18T10:11:36;96584.84;;;15.98;52.52
24306;BME280;12423;48.768;8.850;2023-03-18T10:13:54;96589.97;;;16.16;53.24
24306;BME280;12423;48.768;8.850;2023-03-18T10:16:00;96587.34;;;16.08;52.03
24306;BME280;12423;48.768;8.850;2023-03-18T10:18:29;96597.00;;;16.25;54.19
24306;BME280;12423;48.768;8.850;2023-03-18T10:20:56;96596.03;;;16.64;52.52
24306;BME280;12423;48.768;8.850;2023-03-18T10:23:05;96589.97;;;16.62;52.22
24306;BME280;12423;48.768;8.850;2023-03-18T10:29:46;96602.00;;;16.74;49.71
24306;BME280;12423;48.768;8.850;2023-03-18T10:32:02;96594.47;;;16.93;49.87
24306;BME280;12423;48.768;8.850;2023-03-18T10:36:24;96586.94;;;17.03;49.53
24306;BME280;12423;48.768;8.850;2023-03-18T10:38:36;96587.34;;;17.45;49.21
24306;BME280;12423;48.768;8.850;2023-03-18T10:40:39;96585.78;;;17.50;47.32
24306;BME280;12423;48.768;8.850;2023-03-18T10:42:41;96585.06;;;17.78;49.13
24306;BME280;12423;48.768;8.850;2023-03-18T10:44:42;96585.00;;;18.23;47.30
24306;BME280;12423;48.768;8.850;2023-03-18T10:46:45;96588.66;;;18.15;46.80
24306;BME280;12423;48.768;8.850;2023-03-18T10:48:51;96587.38;;;18.33;48.32
24306;BME280;12423;48.768;8.850;2023-03-18T10:55:14;96570.97;;;19.27;45.96
24306;BME280;12423;48.768;8.850;2023-03-18T10:57:16;96576.19;;;19.01;45.73
24306;BME280;12423;48.768;8.850;2023-03-18T10:59:20;96575.50;;;19.55;46.12
24306;BME280;12423;48.768;8.850;2023-03-18T11:01:23;96577.44;;;20.16;44.75
24306;BME280;12423;48.768;8.850;2023-03-18T11:03:40;96574.28;;;20.13;44.03
24306;BME280;12423;48.768;8.850;2023-03-18T11:05:43;96573.19;;;21.15;43.83
24306;BME280;12423;48.768;8.850;2023-03-18T11:07:55;96563.47;;;22.18;41.81
24306;BME280;12423;48.768;8.850;2023-03-18T11:10:11;96559.78;;;22.51;39.14
24306;BME280;12423;48.768;8.850;2023-03-18T11:12:18;96552.31;;;22.97;39.29
24306;BME280;12423;48.768;8.850;2023-03-18T11:14:28;96536.69;;;23.54;38.30